sensor_id;sensor_type;location;lat;lon;timestamp;P1;durP1;ratioP1;P2;durP2;ratioP2
9739;SDS011;4909;42.680;26.324;2023-02-14T00:01:35;4.37;;;1.40;;
9739;SDS011;4909;42.680;26.324;2023-02-14T00:04:01;3.97;;;1.20;;
9739;SDS011;4909;42.680;26.324;2023-02-14T00:06:29;3.90;;;1.30;;
9739;SDS011;4909;42.680;26.324;2023-02-14T00:08:59;3.30;;;1.17;;
9739;SDS011;4909;42.680;26.324;2023-02-14T00:11:26;3.90;;;1.20;;
9739;SDS011;4909;42.680;26.324;2023-02-14T00:13:53;3.80;;;1.30;;
9739;SDS011;4909;42.680;26.324;2023-02-14T00:16:39;4.43;;;1.30;;
9739;SDS011;4909;42.680;26.324;2023-02-14T00:19:06;4.13;;;1.37;;
9739;SDS011;4909;42.680;26.324;2023-02-14T00:21:34;2.80;;;1.00;;
9739;SDS011;4909;42.680;26.324;2023-02-14T00:24:02;3.30;;;1.17;;
9739;SDS011;4909;42.680;26.324;2023-02-14T00:26:29;3.07;;;1.13;;
9739;SDS011;4909;42.680;26.324;2023-02-14T00:28:56;3.83;;;1.27;;
9739;SDS011;4909;42.680;26.324;2023-02-14T00:31:23;5.67;;;1.67;;
9739;SDS011;4909;42.680;26.324;2023-02-14T00:33:51;4.00;;;1.47;;
9739;SDS011;4909;42.680;26.324;2023-02-14T00:36:17;3.13;;;1.20;;
9739;SDS011;4909;42.680;26.324;2023-02-14T00:38:45;3.70;;;1.27;;
9739;SDS011;4909;42.680;26.324;2023-02-14T00:41:12;4.23;;;1.23;;
9739;SDS011;4909;42.680;26.324;2023-02-14T00:43:43;5.00;;;1.43;;
9739;SDS011;4909;42.680;26.324;2023-02-14T00:46:11;4.27;;;1.27;;
9739;SDS011;4909;42.680;26.324;2023-02-14T00:48:38;6.00;;;1.67;;
9739;SDS011;4909;42.680;26.324;2023-02-14T00:51:06;2.97;;;1.07;;
9739;SDS011;4909;42.680;26.324;2023-02-14T00:53:34;3.57;;;1.23;;
9739;SDS011;4909;42.680;26.324;2023-02-14T00:56:01;5.10;;;1.43;;
9739;SDS011;4909;42.680;26.324;2023-02-14T00:58:29;3.20;;;1.10;;
9739;SDS011;4909;42.680;26.324;2023-02-14T01:00:56;4.30;;;1.27;;
9739;SDS011;4909;42.680;26.324;2023-02-14T01:03:25;3.03;;;1.13;;
9739;SDS011;4909;42.680;26.324;2023-02-14T01:05:52;3.70;;;1.23;;
9739;SDS011;4909;42.680;26.324;2023-02-14T01:08:20;4.97;;;1.40;;
9739;SDS011;4909;42.680;26.324;2023-02-14T01:10:47;5.50;;;1.57;;
9739;SDS011;4909;42.680;26.324;2023-02-14T01:13:15;4.90;;;1.53;;
9739;SDS011;4909;42.680;26.324;2023-02-14T01:15:42;4.00;;;1.20;;
9739;SDS011;4909;42.680;26.324;2023-02-14T01:18:11;6.67;;;1.73;;
9739;SDS011;4909;42.680;26.324;2023-02-14T01:20:39;5.27;;;1.47;;
9739;SDS011;4909;42.680;26.324;2023-02-14T01:23:05;3.93;;;1.40;;
9739;SDS011;4909;42.680;26.324;2023-02-14T01:25:34;7.47;;;2.07;;
9739;SDS011;4909;42.680;26.324;2023-02-14T01:28:01;3.60;;;1.20;;
9739;SDS011;4909;42.680;26.324;2023-02-14T01:30:28;4.93;;;1.47;;
9739;SDS011;4909;42.680;26.324;2023-02-14T01:32:55;4.73;;;1.43;;
9739;SDS011;4909;42.680;26.324;2023-02-14T01:35:22;4.80;;;1.37;;
9739;SDS011;4909;42.680;26.324;2023-02-14T01:37:49;5.20;;;1.53;;
9739;SDS011;4909;42.680;26.324;2023-02-14T01:40:15;5.00;;;1.40;;
9739;SDS011;4909;42.680;26.324;2023-02-14T01:42:44;5.50;;;1.53;;
9739;SDS011;4909;42.680;26.324;2023-02-14T01:45:14;5.63;;;1.73;;
9739;SDS011;4909;42.680;26.324;2023-02-14T01:47:44;5.03;;;1.53;;
9739;SDS011;4909;42.680;26.324;2023-02-14T01:50:16;3.27;;;1.10;;
9739;SDS011;4909;42.680;26.324;2023-02-14T01:52:48;4.17;;;1.27;;
9739;SDS011;4909;42.680;26.324;2023-02-14T01:55:18;4.07;;;1.27;;
9739;SDS011;4909;42.680;26.324;2023-02-14T01:57:49;3.33;;;1.10;;
9739;SDS011;4909;42.680;26.324;2023-02-14T02:00:19;4.73;;;1.40;;
9739;SDS011;4909;42.680;26.324;2023-02-14T02:03:03;5.10;;;1.53;;
9739;SDS011;4909;42.680;26.324;2023-02-14T02:05:32;6.13;;;1.73;;
9739;SDS011;4909;42.680;26.324;2023-02-14T02:07:59;6.53;;;1.73;;
9739;SDS011;4909;42.680;26.324;2023-02-14T02:10:26;4.90;;;1.33;;
9739;SDS011;4909;42.680;26.324;2023-02-14T02:12:55;6.90;;;1.90;;
9739;SDS011;4909;42.680;26.324;2023-02-14T02:15:28;7.33;;;1.83;;
9739;SDS011;4909;42.680;26.324;2023-02-14T02:18:02;5.60;;;1.50;;
9739;SDS011;4909;42.680;26.324;2023-02-14T02:20:45;3.70;;;1.17;;
9739;SDS011;4909;42.680;26.324;2023-02-14T02:26:51;3.97;;;1.20;;
9739;SDS011;4909;42.680;26.324;2023-02-14T02:29:40;3.87;;;1.20;;
9739;SDS011;4909;42.680;26.324;2023-02-14T02:35:46;4.73;;;1.47;;
9739;SDS011;4909;42.680;26.324;2023-02-14T02:38:27;6.70;;;1.80;;
9739;SDS011;4909;42.680;26.324;2023-02-14T02:41:07;7.03;;;1.90;;
9739;SDS011;4909;42.680;26.324;2023-02-14T02:43:50;4.50;;;1.33;;
9739;SDS011;4909;42.680;26.324;2023-02-14T02:46:22;5.57;;;1.57;;
9739;SDS011;4909;42.680;26.324;2023-02-14T02:49:12;4.53;;;1.33;;
9739;SDS011;4909;42.680;26.324;2023-02-14T02:52:06;4.90;;;1.37;;
9739;SDS011;4909;42.680;26.324;2023-02-14T02:54:58;5.30;;;1.60;;
9739;SDS011;4909;42.680;26.324;2023-02-14T02:57:30;2.83;;;1.10;;
9739;SDS011;4909;42.680;26.324;2023-02-14T02:59:58;2.10;;;0.93;;
9739;SDS011;4909;42.680;26.324;2023-02-14T03:02:30;4.67;;;1.43;;
9739;SDS011;4909;42.680;26.324;2023-02-14T03:05:20;4.90;;;1.43;;
9739;SDS011;4909;42.680;26.324;2023-02-14T03:07:48;3.57;;;1.23;;
9739;SDS011;4909;42.680;26.324;2023-02-14T03:10:16;4.63;;;1.40;;
9739;SDS011;4909;42.680;26.324;2023-02-14T03:12:56;5.77;;;1.63;;
9739;SDS011;4909;42.680;26.324;2023-02-14T03:18:47;6.77;;;1.83;;
9739;SDS011;4909;42.680;26.324;2023-02-14T03:21:53;4.60;;;1.37;;
9739;SDS011;4909;42.680;26.324;2023-02-14T03:24:26;6.43;;;1.77;;
9739;SDS011;4909;42.680;26.324;2023-02-14T03:27:01;4.73;;;1.40;;
9739;SDS011;4909;42.680;26.324;2023-02-14T03:29:35;4.43;;;1.40;;
9739;SDS011;4909;42.680;26.324;2023-02-14T03:32:13;4.10;;;1.30;;
9739;SDS011;4909;42.680;26.324;2023-02-14T03:34:46;4.13;;;1.37;;
9739;SDS011;4909;42.680;26.324;2023-02-14T03:37:21;8.47;;;2.10;;
9739;SDS011;4909;42.680;26.324;2023-02-14T03:39:57;4.60;;;1.33;;
9739;SDS011;4909;42.680;26.324;2023-02-14T03:42:29;5.10;;;1.50;;
9739;SDS011;4909;42.680;26.324;2023-02-14T03:44:59;4.70;;;1.33;;
9739;SDS011;4909;42.680;26.324;2023-02-14T03:47:29;5.33;;;1.47;;
9739;SDS011;4909;42.680;26.324;2023-02-14T03:49:59;6.33;;;1.73;;
9739;SDS011;4909;42.680;26.324;2023-02-14T03:52:29;7.27;;;1.80;;
9739;SDS011;4909;42.680;26.324;2023-02-14T03:54:59;6.63;;;1.87;;
9739;SDS011;4909;42.680;26.324;2023-02-14T03:57:28;8.27;;;2.07;;
9739;SDS011;4909;42.680;26.324;2023-02-14T04:00:01;7.30;;;1.93;;
9739;SDS011;4909;42.680;26.324;2023-02-14T04:02:30;4.77;;;1.37;;
9739;SDS011;4909;42.680;26.324;2023-02-14T04:05:02;3.90;;;1.33;;
9739;SDS011;4909;42.680;26.324;2023-02-14T04:07:41;3.73;;;1.20;;
9739;SDS011;4909;42.680;26.324;2023-02-14T04:10:11;8.43;;;2.23;;
9739;SDS011;4909;42.680;26.324;2023-02-14T04:12:38;4.43;;;1.43;;
9739;SDS011;4909;42.680;26.324;2023-02-14T04:15:05;6.50;;;1.77;;
9739;SDS011;4909;42.680;26.324;2023-02-14T04:17:32;4.63;;;1.43;;
9739;SDS011;4909;42.680;26.324;2023-02-14T04:20:17;4.33;;;1.33;;
9739;SDS011;4909;42.680;26.324;2023-02-14T04:22:44;4.57;;;1.40;;
9739;SDS011;4909;42.680;26.324;2023-02-14T04:25:12;7.43;;;1.87;;
9739;SDS011;4909;42.680;26.324;2023-02-14T04:27:40;6.80;;;1.93;;
9739;SDS011;4909;42.680;26.324;2023-02-14T04:30:07;4.23;;;1.43;;
9739;SDS011;4909;42.680;26.324;2023-02-14T04:32:36;5.10;;;1.50;;
9739;SDS011;4909;42.680;26.324;2023-02-14T04:35:05;6.17;;;1.80;;
9739;SDS011;4909;42.680;26.324;2023-02-14T04:37:32;4.33;;;1.40;;
9739;SDS011;4909;42.680;26.324;2023-02-14T04:39:59;5.00;;;1.63;;
9739;SDS011;4909;42.680;26.324;2023-02-14T04:42:27;11.03;;;2.60;;
9739;SDS011;4909;42.680;26.324;2023-02-14T04:44:54;6.27;;;1.73;;
9739;SDS011;4909;42.680;26.324;2023-02-14T04:47:21;7.17;;;1.93;;
9739;SDS011;4909;42.680;26.324;2023-02-14T04:49:47;4.83;;;1.43;;
9739;SDS011;4909;42.680;26.324;2023-02-14T04:52:14;5.50;;;1.67;;
9739;SDS011;4909;42.680;26.324;2023-02-14T04:54:41;5.53;;;1.67;;
9739;SDS011;4909;42.680;26.324;2023-02-14T04:57:08;5.83;;;1.70;;
9739;SDS011;4909;42.680;26.324;2023-02-14T04:59:36;7.63;;;1.93;;
9739;SDS011;4909;42.680;26.324;2023-02-14T05:02:03;3.13;;;1.07;;
9739;SDS011;4909;42.680;26.324;2023-02-14T05:04:30;5.67;;;1.53;;
9739;SDS011;4909;42.680;26.324;2023-02-14T05:06:56;7.07;;;1.90;;
9739;SDS011;4909;42.680;26.324;2023-02-14T05:09:23;3.67;;;1.30;;
9739;SDS011;4909;42.680;26.324;2023-02-14T05:11:50;3.23;;;1.13;;
9739;SDS011;4909;42.680;26.324;2023-02-14T05:14:17;4.73;;;1.30;;
9739;SDS011;4909;42.680;26.324;2023-02-14T05:16:45;4.10;;;1.33;;
9739;SDS011;4909;42.680;26.324;2023-02-14T05:19:12;4.40;;;1.37;;
9739;SDS011;4909;42.680;26.324;2023-02-14T05:21:39;4.23;;;1.47;;
9739;SDS011;4909;42.680;26.324;2023-02-14T05:24:06;4.33;;;1.47;;
9739;SDS011;4909;42.680;26.324;2023-02-14T05:26:32;6.43;;;1.73;;
9739;SDS011;4909;42.680;26.324;2023-02-14T05:28:59;5.93;;;1.67;;
9739;SDS011;4909;42.680;26.324;2023-02-14T05:31:26;6.23;;;1.70;;
9739;SDS011;4909;42.680;26.324;2023-02-14T05:33:54;5.80;;;1.67;;
9739;SDS011;4909;42.680;26.324;2023-02-14T05:36:21;8.97;;;2.33;;
9739;SDS011;4909;42.680;26.324;2023-02-14T05:38:48;9.23;;;2.37;;
9739;SDS011;4909;42.680;26.324;2023-02-14T05:41:15;6.10;;;1.80;;
9739;SDS011;4909;42.680;26.324;2023-02-14T05:43:41;4.23;;;1.33;;
9739;SDS011;4909;42.680;26.324;2023-02-14T05:46:08;6.30;;;1.77;;
9739;SDS011;4909;42.680;26.324;2023-02-14T05:48:35;7.00;;;1.90;;
9739;SDS011;4909;42.680;26.324;2023-02-14T05:51:04;8.40;;;2.20;;
9739;SDS011;4909;42.680;26.324;2023-02-14T05:53:31;8.27;;;2.13;;
9739;SDS011;4909;42.680;26.324;2023-02-14T05:55:59;5.10;;;1.50;;
9739;SDS011;4909;42.680;26.324;2023-02-14T05:58:26;9.70;;;2.37;;
9739;SDS011;4909;42.680;26.324;2023-02-14T06:00:53;9.80;;;2.43;;
9739;SDS011;4909;42.680;26.324;2023-02-14T06:03:21;5.93;;;1.83;;
9739;SDS011;4909;42.680;26.324;2023-02-14T06:05:48;4.60;;;1.53;;
9739;SDS011;4909;42.680;26.324;2023-02-14T06:08:16;8.60;;;2.33;;
9739;SDS011;4909;42.680;26.324;2023-02-14T06:10:43;3.10;;;1.53;;
9739;SDS011;4909;42.680;26.324;2023-02-14T06:13:10;7.80;;;2.67;;
9739;SDS011;4909;42.680;26.324;2023-02-14T06:15:37;6.73;;;2.50;;
9739;SDS011;4909;42.680;26.324;2023-02-14T06:18:04;6.17;;;2.57;;
9739;SDS011;4909;42.680;26.324;2023-02-14T06:20:31;6.47;;;2.70;;
9739;SDS011;4909;42.680;26.324;2023-02-14T06:22:57;7.83;;;3.80;;
9739;SDS011;4909;42.680;26.324;2023-02-14T06:25:26;5.40;;;2.77;;
9739;SDS011;4909;42.680;26.324;2023-02-14T06:27:54;7.07;;;3.13;;
9739;SDS011;4909;42.680;26.324;2023-02-14T06:30:22;11.43;;;4.37;;
9739;SDS011;4909;42.680;26.324;2023-02-14T06:32:49;6.60;;;3.70;;
9739;SDS011;4909;42.680;26.324;2023-02-14T06:35:16;5.80;;;3.73;;
9739;SDS011;4909;42.680;26.324;2023-02-14T06:37:43;10.97;;;5.17;;
9739;SDS011;4909;42.680;26.324;2023-02-14T06:40:10;7.53;;;3.97;;
9739;SDS011;4909;42.680;26.324;2023-02-14T06:42:40;5.40;;;3.97;;
9739;SDS011;4909;42.680;26.324;2023-02-14T06:45:07;7.07;;;3.83;;
9739;SDS011;4909;42.680;26.324;2023-02-14T06:47:34;10.80;;;5.23;;
9739;SDS011;4909;42.680;26.324;2023-02-14T06:50:02;10.33;;;5.73;;
9739;SDS011;4909;42.680;26.324;2023-02-14T06:52:29;8.60;;;5.33;;
9739;SDS011;4909;42.680;26.324;2023-02-14T06:54:56;10.07;;;5.20;;
9739;SDS011;4909;42.680;26.324;2023-02-14T06:57:23;5.80;;;4.30;;
9739;SDS011;4909;42.680;26.324;2023-02-14T06:59:51;5.83;;;4.40;;
9739;SDS011;4909;42.680;26.324;2023-02-14T07:02:18;7.03;;;5.17;;
9739;SDS011;4909;42.680;26.324;2023-02-14T07:04:45;6.07;;;5.20;;
9739;SDS011;4909;42.680;26.324;2023-02-14T07:07:12;7.30;;;6.73;;
9739;SDS011;4909;42.680;26.324;2023-02-14T07:09:38;8.13;;;7.47;;
9739;SDS011;4909;42.680;26.324;2023-02-14T07:12:05;7.13;;;6.60;;
9739;SDS011;4909;42.680;26.324;2023-02-14T07:14:32;9.87;;;8.97;;
9739;SDS011;4909;42.680;26.324;2023-02-14T07:17:00;9.07;;;8.17;;
9739;SDS011;4909;42.680;26.324;2023-02-14T07:19:27;7.17;;;6.47;;
9739;SDS011;4909;42.680;26.324;2023-02-14T07:21:54;10.07;;;8.20;;
9739;SDS011;4909;42.680;26.324;2023-02-14T07:24:20;11.03;;;9.90;;
9739;SDS011;4909;42.680;26.324;2023-02-14T07:26:47;16.03;;;14.53;;
9739;SDS011;4909;42.680;26.324;2023-02-14T07:29:14;14.40;;;13.33;;
9739;SDS011;4909;42.680;26.324;2023-02-14T07:31:41;14.40;;;13.07;;
9739;SDS011;4909;42.680;26.324;2023-02-14T07:34:09;16.17;;;14.97;;
9739;SDS011;4909;42.680;26.324;2023-02-14T07:36:36;19.43;;;18.10;;
9739;SDS011;4909;42.680;26.324;2023-02-14T07:39:03;14.67;;;12.43;;
9739;SDS011;4909;42.680;26.324;2023-02-14T07:41:29;9.30;;;8.30;;
9739;SDS011;4909;42.680;26.324;2023-02-14T07:43:56;10.23;;;9.27;;
9739;SDS011;4909;42.680;26.324;2023-02-14T07:46:23;11.73;;;10.70;;
9739;SDS011;4909;42.680;26.324;2023-02-14T07:48:50;11.23;;;10.53;;
9739;SDS011;4909;42.680;26.324;2023-02-14T07:51:18;18.17;;;16.30;;
9739;SDS011;4909;42.680;26.324;2023-02-14T07:53:45;14.10;;;13.03;;
9739;SDS011;4909;42.680;26.324;2023-02-14T07:56:12;13.17;;;12.20;;
9739;SDS011;4909;42.680;26.324;2023-02-14T07:58:39;18.20;;;16.63;;
9739;SDS011;4909;42.680;26.324;2023-02-14T08:01:05;17.07;;;15.60;;
9739;SDS011;4909;42.680;26.324;2023-02-14T08:03:32;14.77;;;13.40;;
9739;SDS011;4909;42.680;26.324;2023-02-14T08:05:59;12.30;;;10.97;;
9739;SDS011;4909;42.680;26.324;2023-02-14T08:08:29;13.37;;;12.37;;
9739;SDS011;4909;42.680;26.324;2023-02-14T08:10:57;15.40;;;13.30;;
9739;SDS011;4909;42.680;26.324;2023-02-14T08:13:24;12.83;;;11.53;;
9739;SDS011;4909;42.680;26.324;2023-02-14T08:15:51;13.93;;;9.10;;
9739;SDS011;4909;42.680;26.324;2023-02-14T08:18:30;13.60;;;12.23;;
9739;SDS011;4909;42.680;26.324;2023-02-14T08:20:58;14.90;;;12.37;;
9739;SDS011;4909;42.680;26.324;2023-02-14T08:23:25;15.13;;;12.63;;
9739;SDS011;4909;42.680;26.324;2023-02-14T08:25:53;15.20;;;14.03;;
9739;SDS011;4909;42.680;26.324;2023-02-14T08:28:20;13.33;;;12.17;;
9739;SDS011;4909;42.680;26.324;2023-02-14T08:30:47;14.17;;;13.20;;
9739;SDS011;4909;42.680;26.324;2023-02-14T08:33:14;17.80;;;15.23;;
9739;SDS011;4909;42.680;26.324;2023-02-14T08:35:41;13.33;;;12.07;;
9739;SDS011;4909;42.680;26.324;2023-02-14T08:38:07;17.03;;;13.90;;
9739;SDS011;4909;42.680;26.324;2023-02-14T08:40:34;22.17;;;15.30;;
9739;SDS011;4909;42.680;26.324;2023-02-14T08:43:03;15.50;;;11.57;;
9739;SDS011;4909;42.680;26.324;2023-02-14T08:45:29;17.33;;;12.67;;
9739;SDS011;4909;42.680;26.324;2023-02-14T08:47:59;13.00;;;11.50;;
9739;SDS011;4909;42.680;26.324;2023-02-14T08:50:27;15.37;;;12.73;;
9739;SDS011;4909;42.680;26.324;2023-02-14T08:52:54;13.13;;;11.83;;
9739;SDS011;4909;42.680;26.324;2023-02-14T08:55:20;13.37;;;11.70;;
9739;SDS011;4909;42.680;26.324;2023-02-14T08:57:47;11.40;;;10.50;;
9739;SDS011;4909;42.680;26.324;2023-02-14T09:00:16;15.50;;;13.93;;
9739;SDS011;4909;42.680;26.324;2023-02-14T09:02:43;23.60;;;20.17;;
9739;SDS011;4909;42.680;26.324;2023-02-14T09:05:10;15.20;;;14.10;;
9739;SDS011;4909;42.680;26.324;2023-02-14T09:07:37;16.23;;;14.87;;
9739;SDS011;4909;42.680;26.324;2023-02-14T09:10:04;15.87;;;14.53;;
9739;SDS011;4909;42.680;26.324;2023-02-14T09:12:32;15.57;;;14.50;;
9739;SDS011;4909;42.680;26.324;2023-02-14T09:14:59;11.00;;;10.03;;
9739;SDS011;4909;42.680;26.324;2023-02-14T09:17:27;11.77;;;10.77;;
9739;SDS011;4909;42.680;26.324;2023-02-14T09:19:54;9.93;;;8.97;;
9739;SDS011;4909;42.680;26.324;2023-02-14T09:22:21;12.57;;;11.23;;
9739;SDS011;4909;42.680;26.324;2023-02-14T09:24:48;22.13;;;20.33;;
9739;SDS011;4909;42.680;26.324;2023-02-14T09:27:15;15.90;;;14.80;;
9739;SDS011;4909;42.680;26.324;2023-02-14T09:29:42;17.93;;;15.33;;
9739;SDS011;4909;42.680;26.324;2023-02-14T09:32:08;15.73;;;14.50;;
9739;SDS011;4909;42.680;26.324;2023-02-14T09:34:37;17.57;;;16.03;;
9739;SDS011;4909;42.680;26.324;2023-02-14T09:37:03;12.53;;;11.53;;
9739;SDS011;4909;42.680;26.324;2023-02-14T09:39:48;13.67;;;11.87;;
9739;SDS011;4909;42.680;26.324;2023-02-14T09:42:34;9.47;;;8.67;;
9739;SDS011;4909;42.680;26.324;2023-02-14T09:45:07;16.30;;;9.70;;
9739;SDS011;4909;42.680;26.324;2023-02-14T09:47:39;13.37;;;8.27;;
9739;SDS011;4909;42.680;26.324;2023-02-14T09:50:15;10.27;;;7.40;;
9739;SDS011;4909;42.680;26.324;2023-02-14T09:52:48;6.33;;;5.43;;
9739;SDS011;4909;42.680;26.324;2023-02-14T09:55:20;8.80;;;7.03;;
9739;SDS011;4909;42.680;26.324;2023-02-14T09:57:57;13.17;;;8.00;;
9739;SDS011;4909;42.680;26.324;2023-02-14T10:00:50;6.40;;;4.67;;
9739;SDS011;4909;42.680;26.324;2023-02-14T10:03:29;8.90;;;4.77;;
9739;SDS011;4909;42.680;26.324;2023-02-14T10:06:25;10.33;;;5.00;;
9739;SDS011;4909;42.680;26.324;2023-02-14T10:09:05;9.17;;;4.23;;
9739;SDS011;4909;42.680;26.324;2023-02-14T10:11:37;4.00;;;2.93;;
9739;SDS011;4909;42.680;26.324;2023-02-14T10:14:08;8.20;;;3.67;;
9739;SDS011;4909;42.680;26.324;2023-02-14T10:16:41;9.23;;;4.10;;
9739;SDS011;4909;42.680;26.324;2023-02-14T10:19:14;5.60;;;3.10;;
9739;SDS011;4909;42.680;26.324;2023-02-14T10:21:47;6.83;;;3.03;;
9739;SDS011;4909;42.680;26.324;2023-02-14T10:24:17;8.90;;;3.63;;
9739;SDS011;4909;42.680;26.324;2023-02-14T10:26:50;6.73;;;3.13;;
9739;SDS011;4909;42.680;26.324;2023-02-14T10:29:21;5.50;;;2.80;;
9739;SDS011;4909;42.680;26.324;2023-02-14T10:31:49;8.10;;;3.33;;
9739;SDS011;4909;42.680;26.324;2023-02-14T10:34:23;5.30;;;2.83;;
9739;SDS011;4909;42.680;26.324;2023-02-14T10:36:58;6.47;;;3.03;;
9739;SDS011;4909;42.680;26.324;2023-02-14T10:42:41;4.30;;;2.40;;
9739;SDS011;4909;42.680;26.324;2023-02-14T10:45:16;10.10;;;3.60;;
9739;SDS011;4909;42.680;26.324;2023-02-14T10:47:53;7.23;;;2.80;;
9739;SDS011;4909;42.680;26.324;2023-02-14T10:50:27;8.50;;;3.20;;
9739;SDS011;4909;42.680;26.324;2023-02-14T10:53:05;6.97;;;3.27;;
9739;SDS011;4909;42.680;26.324;2023-02-14T10:55:43;7.63;;;3.07;;
9739;SDS011;4909;42.680;26.324;2023-02-14T10:58:15;6.67;;;2.93;;
9739;SDS011;4909;42.680;26.324;2023-02-14T11:00:48;8.13;;;3.10;;
9739;SDS011;4909;42.680;26.324;2023-02-14T11:03:20;6.77;;;2.53;;
9739;SDS011;4909;42.680;26.324;2023-02-14T11:05:47;11.90;;;3.73;;
9739;SDS011;4909;42.680;26.324;2023-02-14T11:08:18;10.47;;;3.90;;
9739;SDS011;4909;42.680;26.324;2023-02-14T11:10:50;8.40;;;2.80;;
9739;SDS011;4909;42.680;26.324;2023-02-14T11:13:31;9.70;;;3.33;;
9739;SDS011;4909;42.680;26.324;2023-02-14T11:16:00;7.83;;;2.77;;
9739;SDS011;4909;42.680;26.324;2023-02-14T11:18:29;5.07;;;2.37;;
9739;SDS011;4909;42.680;26.324;2023-02-14T11:21:04;9.87;;;3.23;;
9739;SDS011;4909;42.680;26.324;2023-02-14T11:23:35;6.33;;;2.53;;
9739;SDS011;4909;42.680;26.324;2023-02-14T11:26:04;9.13;;;2.93;;
9739;SDS011;4909;42.680;26.324;2023-02-14T11:28:36;6.13;;;;;
9739;SDS011;4909;42.680;26.324;2023-02-14T11:31:22;10.30;;;2.80;;
9739;SDS011;4909;42.680;26.324;2023-02-14T11:33:50;7.30;;;2.37;;
9739;SDS011;4909;42.680;26.324;2023-02-14T11:36:18;10.40;;;2.80;;
9739;SDS011;4909;42.680;26.324;2023-02-14T11:38:53;5.43;;;2.10;;
9739;SDS011;4909;42.680;26.324;2023-02-14T11:41:21;7.57;;;2.33;;
9739;SDS011;4909;42.680;26.324;2023-02-14T11:43:48;7.53;;;2.33;;
9739;SDS011;4909;42.680;26.324;2023-02-14T11:46:23;6.53;;;2.10;;
9739;SDS011;4909;42.680;26.324;2023-02-14T11:48:55;8.13;;;2.43;;
9739;SDS011;4909;42.680;26.324;2023-02-14T11:51:26;12.70;;;3.17;;
9739;SDS011;4909;42.680;26.324;2023-02-14T11:53:56;8.87;;;2.50;;
9739;SDS011;4909;42.680;26.324;2023-02-14T11:59:21;7.50;;;2.20;;
9739;SDS011;4909;42.680;26.324;2023-02-14T12:01:52;4.60;;;1.60;;
9739;SDS011;4909;42.680;26.324;2023-02-14T12:04:20;8.10;;;2.30;;
9739;SDS011;4909;42.680;26.324;2023-02-14T12:06:52;8.90;;;2.50;;
9739;SDS011;4909;42.680;26.324;2023-02-14T12:09:26;9.07;;;2.43;;
9739;SDS011;4909;42.680;26.324;2023-02-14T12:11:56;7.13;;;2.13;;
9739;SDS011;4909;42.680;26.324;2023-02-14T12:14:24;8.07;;;2.17;;
9739;SDS011;4909;42.680;26.324;2023-02-14T12:16:55;12.10;;;3.00;;
9739;SDS011;4909;42.680;26.324;2023-02-14T12:19:28;7.93;;;2.20;;
9739;SDS011;4909;42.680;26.324;2023-02-14T12:22:03;5.07;;;1.80;;
9739;SDS011;4909;42.680;26.324;2023-02-14T12:24:34;8.33;;;2.23;;
9739;SDS011;4909;42.680;26.324;2023-02-14T12:27:11;7.67;;;2.10;;
9739;SDS011;4909;42.680;26.324;2023-02-14T12:29:46;5.60;;;1.80;;
9739;SDS011;4909;42.680;26.324;2023-02-14T12:32:19;8.33;;;2.47;;
9739;SDS011;4909;42.680;26.324;2023-02-14T12:34:48;6.07;;;1.87;;
9739;SDS011;4909;42.680;26.324;2023-02-14T12:37:18;4.93;;;1.67;;
9739;SDS011;4909;42.680;26.324;2023-02-14T12:39:59;7.80;;;2.27;;
9739;SDS011;4909;42.680;26.324;2023-02-14T12:42:47;7.43;;;2.20;;
9739;SDS011;4909;42.680;26.324;2023-02-14T12:45:35;6.10;;;2.17;;
9739;SDS011;4909;42.680;26.324;2023-02-14T12:48:19;4.13;;;1.40;;
9739;SDS011;4909;42.680;26.324;2023-02-14T12:50:55;6.57;;;2.00;;
9739;SDS011;4909;42.680;26.324;2023-02-14T12:53:34;5.97;;;1.97;;
9739;SDS011;4909;42.680;26.324;2023-02-14T12:56:10;8.33;;;2.53;;
9739;SDS011;4909;42.680;26.324;2023-02-14T12:58:48;11.83;;;3.07;;
9739;SDS011;4909;42.680;26.324;2023-02-14T13:01:44;6.40;;;2.10;;
9739;SDS011;4909;42.680;26.324;2023-02-14T13:04:43;6.53;;;2.20;;
9739;SDS011;4909;42.680;26.324;2023-02-14T13:07:20;9.17;;;2.67;;
9739;SDS011;4909;42.680;26.324;2023-02-14T13:10:03;7.10;;;2.20;;
9739;SDS011;4909;42.680;26.324;2023-02-14T13:12:42;4.97;;;1.77;;
9739;SDS011;4909;42.680;26.324;2023-02-14T13:15:18;8.53;;;2.50;;
9739;SDS011;4909;42.680;26.324;2023-02-14T13:17:53;4.67;;;1.83;;
9739;SDS011;4909;42.680;26.324;2023-02-14T13:23:19;7.33;;;2.30;;
9739;SDS011;4909;42.680;26.324;2023-02-14T13:25:53;8.30;;;2.43;;
9739;SDS011;4909;42.680;26.324;2023-02-14T13:28:27;9.40;;;2.93;;
9739;SDS011;4909;42.680;26.324;2023-02-14T13:30:56;8.13;;;2.40;;
9739;SDS011;4909;42.680;26.324;2023-02-14T13:33:26;6.73;;;2.17;;
9739;SDS011;4909;42.680;26.324;2023-02-14T13:35:57;3.90;;;1.80;;
9739;SDS011;4909;42.680;26.324;2023-02-14T13:38:27;9.13;;;2.63;;
9739;SDS011;4909;42.680;26.324;2023-02-14T13:40:57;5.17;;;2.07;;
9739;SDS011;4909;42.680;26.324;2023-02-14T13:43:46;8.17;;;2.60;;
9739;SDS011;4909;42.680;26.324;2023-02-14T13:46:14;9.10;;;2.70;;
9739;SDS011;4909;42.680;26.324;2023-02-14T13:48:43;7.97;;;2.50;;
9739;SDS011;4909;42.680;26.324;2023-02-14T13:51:22;5.60;;;1.90;;
9739;SDS011;4909;42.680;26.324;2023-02-14T13:54:20;5.37;;;1.80;;
9739;SDS011;4909;42.680;26.324;2023-02-14T13:56:53;2.27;;;1.20;;
9739;SDS011;4909;42.680;26.324;2023-02-14T13:59:26;6.37;;;2.07;;
9739;SDS011;4909;42.680;26.324;2023-02-14T14:01:55;5.57;;;1.90;;
9739;SDS011;4909;42.680;26.324;2023-02-14T14:11:12;5.03;;;1.80;;
9739;SDS011;4909;42.680;26.324;2023-02-14T14:14:31;5.57;;;1.80;;
9739;SDS011;4909;42.680;26.324;2023-02-14T14:17:14;8.50;;;2.37;;
9739;SDS011;4909;42.680;26.324;2023-02-14T14:19:45;2.70;;;1.33;;
9739;SDS011;4909;42.680;26.324;2023-02-14T14:22:13;7.53;;;2.07;;
9739;SDS011;4909;42.680;26.324;2023-02-14T14:24:41;9.80;;;2.57;;
9739;SDS011;4909;42.680;26.324;2023-02-14T14:27:19;3.63;;;1.30;;
9739;SDS011;4909;42.680;26.324;2023-02-14T14:29:50;5.37;;;1.83;;
9739;SDS011;4909;42.680;26.324;2023-02-14T14:32:23;7.33;;;2.20;;
9739;SDS011;4909;42.680;26.324;2023-02-14T14:34:53;7.20;;;2.13;;
9739;SDS011;4909;42.680;26.324;2023-02-14T14:37:25;5.73;;;1.83;;
9739;SDS011;4909;42.680;26.324;2023-02-14T14:39:54;2.37;;;1.20;;
9739;SDS011;4909;42.680;26.324;2023-02-14T14:42:23;7.47;;;2.20;;
9739;SDS011;4909;42.680;26.324;2023-02-14T14:44:53;6.17;;;2.00;;
9739;SDS011;4909;42.680;26.324;2023-02-14T14:47:22;5.50;;;1.87;;
9739;SDS011;4909;42.680;26.324;2023-02-14T14:49:51;6.33;;;2.03;;
9739;SDS011;4909;42.680;26.324;2023-02-14T14:52:23;7.83;;;2.20;;
9739;SDS011;4909;42.680;26.324;2023-02-14T14:54:55;6.00;;;1.90;;
9739;SDS011;4909;42.680;26.324;2023-02-14T14:57:23;6.87;;;2.13;;
9739;SDS011;4909;42.680;26.324;2023-02-14T15:00:03;4.43;;;1.53;;
9739;SDS011;4909;42.680;26.324;2023-02-14T15:02:33;3.83;;;1.50;;
9739;SDS011;4909;42.680;26.324;2023-02-14T15:05:09;3.60;;;1.30;;
9739;SDS011;4909;42.680;26.324;2023-02-14T15:07:38;6.83;;;2.20;;
9739;SDS011;4909;42.680;26.324;2023-02-14T15:10:19;12.00;;;3.10;;
9739;SDS011;4909;42.680;26.324;2023-02-14T15:12:47;3.10;;;1.40;;
9739;SDS011;4909;42.680;26.324;2023-02-14T15:15:34;8.40;;;2.33;;
9739;SDS011;4909;42.680;26.324;2023-02-14T15:18:03;5.47;;;1.73;;
9739;SDS011;4909;42.680;26.324;2023-02-14T15:20:31;9.60;;;2.77;;
9739;SDS011;4909;42.680;26.324;2023-02-14T15:22:57;4.63;;;1.60;;
9739;SDS011;4909;42.680;26.324;2023-02-14T15:25:25;5.60;;;1.83;;
9739;SDS011;4909;42.680;26.324;2023-02-14T15:27:54;5.53;;;1.67;;
9739;SDS011;4909;42.680;26.324;2023-02-14T15:30:22;8.40;;;2.30;;
9739;SDS011;4909;42.680;26.324;2023-02-14T15:32:54;4.10;;;1.43;;
9739;SDS011;4909;42.680;26.324;2023-02-14T15:35:23;6.93;;;2.07;;
9739;SDS011;4909;42.680;26.324;2023-02-14T15:37:52;4.23;;;1.47;;
9739;SDS011;4909;42.680;26.324;2023-02-14T15:40:22;5.20;;;1.63;;
9739;SDS011;4909;42.680;26.324;2023-02-14T15:42:51;8.10;;;2.07;;
9739;SDS011;4909;42.680;26.324;2023-02-14T15:45:21;4.10;;;1.40;;
9739;SDS011;4909;42.680;26.324;2023-02-14T15:47:50;4.63;;;1.53;;